sensor_id;sensor_type;location;lat;lon;timestamp;pressure;altitude;pressure_sealevel;temperature;humidity
17260;BME280;8746;49.230;9.220;2023-04-15T00:01:48;99012.03;;;4.64;100.00
17260;BME280;8746;49.230;9.220;2023-04-15T00:04:13;99006.81;;;4.64;100.00
17260;BME280;8746;49.230;9.220;2023-04-15T00:06:39;99002.34;;;4.68;100.00
17260;BME280;8746;49.230;9.220;2023-04-15T00:09:05;99011.03;;;4.69;100.00
17260;BME280;8746;49.230;9.220;2023-04-15T00:11:30;99008.44;;;4.69;100.00
17260;BME280;8746;49.230;9.220;2023-04-15T00:13:55;99004.69;;;4.76;100.00
17260;BME280;8746;49.230;9.220;2023-04-15T00:16:21;99010.84;;;4.75;100.00
17260;BME280;8746;49.230;9.220;2023-04-15T00:18:46;99011.75;;;4.74;100.00
17260;BME280;8746;49.230;9.220;2023-04-15T00:21:11;99009.97;;;4.74;100.00
17260;BME280;8746;49.230;9.220;2023-04-15T00:23:37;99015.16;;;4.76;100.00
17260;BME280;8746;49.230;9.220;2023-04-15T00:26:02;99008.25;;;4.75;100.00
17260;BME280;8746;49.230;9.220;2023-04-15T00:28:28;99014.38;;;4.74;100.00
17260;BME280;8746;49.230;9.220;2023-04-15T00:30:53;99015.34;;;4.70;100.00
17260;BME280;8746;49.230;9.220;2023-04-15T00:33:19;99016.59;;;4.58;100.00
17260;BME280;8746;49.230;9.220;2023-04-15T00:35:44;99010.81;;;4.48;100.00
17260;BME280;8746;49.230;9.220;2023-04-15T00:38:09;99007.31;;;4.47;100.00
17260;BME280;8746;49.230;9.220;2023-04-15T00:40:35;98999.78;;;4.38;100.00
17260;BME280;8746;49.230;9.220;2023-04-15T00:43:01;99008.56;;;4.36;100.00
17260;BME280;8746;49.230;9.220;2023-04-15T00:45:27;99009.53;;;4.31;100.00
17260;BME280;8746;49.230;9.220;2023-04-15T00:47:53;99008.75;;;4.29;100.00
17260;BME280;8746;49.230;9.220;2023-04-15T00:50:18;99012.44;;;4.22;100.00
17260;BME280;8746;49.230;9.220;2023-04-15T00:52:43;99012.50;;;4.19;100.00
17260;BME280;8746;49.230;9.220;2023-04-15T00:55:09;99016.84;;;4.20;100.00
17260;BME280;8746;49.230;9.220;2023-04-15T00:57:35;99015.13;;;4.19;100.00
17260;BME280;8746;49.230;9.220;2023-04-15T01:00:01;99013.97;;;4.29;100.00
17260;BME280;8746;49.230;9.220;2023-04-15T01:02:28;99006.16;;;4.28;100.00
17260;BME280;8746;49.230;9.220;2023-04-15T01:04:55;99005.38;;;4.24;100.00
17260;BME280;8746;49.230;9.220;2023-04-15T01:07:21;99002.00;;;4.22;100.00
17260;BME280;8746;49.230;9.220;2023-04-15T01:09:46;98999.81;;;4.07;100.00
17260;BME280;8746;49.230;9.220;2023-04-15T01:12:13;99004.94;;;4.10;100.00
17260;BME280;8746;49.230;9.220;2023-04-15T01:14:40;98999.72;;;4.10;100.00
17260;BME280;8746;49.230;9.220;2023-04-15T01:17:05;99000.66;;;4.07;100.00
17260;BME280;8746;49.230;9.220;2023-04-15T01:19:31;99005.03;;;4.07;100.00
17260;BME280;8746;49.230;9.220;2023-04-15T01:21:57;99003.44;;;4.03;100.00
17260;BME280;8746;49.230;9.220;2023-04-15T01:24:22;99005.22;;;4.00;100.00
17260;BME280;8746;49.230;9.220;2023-04-15T01:26:50;99001.78;;;3.98;100.00
17260;BME280;8746;49.230;9.220;2023-04-15T01:29:16;98998.16;;;4.04;100.00
17260;BME280;8746;49.230;9.220;2023-04-15T01:31:53;99004.31;;;4.01;100.00
17260;BME280;8746;49.230;9.220;2023-04-15T01:34:19;99005.09;;;3.74;100.00
17260;BME280;8746;49.230;9.220;2023-04-15T01:36:45;99004.44;;;3.65;100.00
17260;BME280;8746;49.230;9.220;2023-04-15T01:39:11;99003.25;;;3.77;100.00
17260;BME280;8746;49.230;9.220;2023-04-15T01:41:36;98997.38;;;3.69;100.00
17260;BME280;8746;49.230;9.220;2023-04-15T01:44:01;99005.50;;;3.58;100.00
17260;BME280;8746;49.230;9.220;2023-04-15T01:46:27;98997.66;;;3.58;100.00
17260;BME280;8746;49.230;9.220;2023-04-15T01:48:52;99005.31;;;3.64;100.00
17260;BME280;8746;49.230;9.220;2023-04-15T01:51:18;98991.50;;;3.62;100.00
17260;BME280;8746;49.230;9.220;2023-04-15T01:53:43;98991.94;;;3.77;100.00
17260;BME280;8746;49.230;9.220;2023-04-15T01:56:10;98993.41;;;3.87;100.00
17260;BME280;8746;49.230;9.220;2023-04-15T01:58:35;98992.59;;;3.85;100.00
17260;BME280;8746;49.230;9.220;2023-04-15T02:01:01;98992.72;;;3.80;100.00
17260;BME280;8746;49.230;9.220;2023-04-15T02:03:28;98998.28;;;3.68;100.00
17260;BME280;8746;49.230;9.220;2023-04-15T02:05:53;98993.22;;;3.63;100.00
17260;BME280;8746;49.230;9.220;2023-04-15T02:08:19;98989.72;;;3.63;100.00
17260;BME280;8746;49.230;9.220;2023-04-15T02:10:44;99001.09;;;3.60;100.00
17260;BME280;8746;49.230;9.220;2023-04-15T02:13:09;98998.59;;;3.56;100.00
17260;BME280;8746;49.230;9.220;2023-04-15T02:15:35;99000.31;;;3.57;100.00
17260;BME280;8746;49.230;9.220;2023-04-15T02:18:00;99001.25;;;3.54;100.00
17260;BME280;8746;49.230;9.220;2023-04-15T02:20:26;98998.72;;;3.52;100.00
17260;BME280;8746;49.230;9.220;2023-04-15T02:22:52;98998.66;;;3.54;100.00
17260;BME280;8746;49.230;9.220;2023-04-15T02:25:17;99001.31;;;3.52;100.00
17260;BME280;8746;49.230;9.220;2023-04-15T02:27:44;99007.50;;;3.48;100.00
17260;BME280;8746;49.230;9.220;2023-04-15T02:30:09;99003.38;;;3.40;100.00
17260;BME280;8746;49.230;9.220;2023-04-15T02:32:35;99008.75;;;3.33;100.00
17260;BME280;8746;49.230;9.220;2023-04-15T02:35:06;99009.56;;;3.35;100.00
17260;BME280;8746;49.230;9.220;2023-04-15T02:37:32;99003.47;;;3.36;100.00
17260;BME280;8746;49.230;9.220;2023-04-15T02:40:01;99008.97;;;3.24;100.00
17260;BME280;8746;49.230;9.220;2023-04-15T02:42:26;98999.38;;;3.26;100.00
17260;BME280;8746;49.230;9.220;2023-04-15T02:44:54;99007.44;;;3.17;100.00
17260;BME280;8746;49.230;9.220;2023-04-15T02:47:20;99008.41;;;3.13;100.00
17260;BME280;8746;49.230;9.220;2023-04-15T02:49:46;99002.25;;;3.15;100.00
17260;BME280;8746;49.230;9.220;2023-04-15T02:52:11;99003.13;;;3.16;100.00
17260;BME280;8746;49.230;9.220;2023-04-15T02:54:36;99002.34;;;3.11;100.00
17260;BME280;8746;49.230;9.220;2023-04-15T02:57:02;98995.47;;;3.10;100.00
17260;BME280;8746;49.230;9.220;2023-04-15T02:59:30;98999.06;;;3.04;100.00
17260;BME280;8746;49.230;9.220;2023-04-15T03:01:55;98995.66;;;3.00;100.00
17260;BME280;8746;49.230;9.220;2023-04-15T03:04:24;98999.22;;;2.98;100.00
17260;BME280;8746;49.230;9.220;2023-04-15T03:06:50;98996.75;;;2.92;100.00
17260;BME280;8746;49.230;9.220;2023-04-15T03:09:15;98995.88;;;2.93;100.00
17260;BME280;8746;49.230;9.220;2023-04-15T03:11:40;98990.81;;;2.85;100.00
17260;BME280;8746;49.230;9.220;2023-04-15T03:14:06;98995.00;;;2.92;100.00
17260;BME280;8746;49.230;9.220;2023-04-15T03:16:31;98999.25;;;2.96;100.00
17260;BME280;8746;49.230;9.220;2023-04-15T03:18:57;98992.25;;;2.98;100.00
17260;BME280;8746;49.230;9.220;2023-04-15T03:21:22;98992.88;;;3.08;100.00
17260;BME280;8746;49.230;9.220;2023-04-15T03:23:48;98994.59;;;3.09;100.00
17260;BME280;8746;49.230;9.220;2023-04-15T03:26:29;98991.03;;;3.13;100.00
17260;BME280;8746;49.230;9.220;2023-04-15T03:28:55;98993.28;;;3.27;100.00
17260;BME280;8746;49.230;9.220;2023-04-15T03:31:20;98989.56;;;3.36;100.00
17260;BME280;8746;49.230;9.220;2023-04-15T03:33:46;98986.78;;;3.42;100.00
17260;BME280;8746;49.230;9.220;2023-04-15T03:36:11;98984.00;;;3.50;100.00
17260;BME280;8746;49.230;9.220;2023-04-15T03:38:36;98984.75;;;3.53;100.00
17260;BME280;8746;49.230;9.220;2023-04-15T03:41:02;98984.63;;;3.58;100.00
17260;BME280;8746;49.230;9.220;2023-04-15T03:43:27;98984.50;;;3.63;100.00
17260;BME280;8746;49.230;9.220;2023-04-15T03:45:52;98984.59;;;3.60;100.00
17260;BME280;8746;49.230;9.220;2023-04-15T03:48:18;98986.59;;;3.50;100.00
17260;BME280;8746;49.230;9.220;2023-04-15T03:50:43;98986.00;;;3.40;100.00
17260;BME280;8746;49.230;9.220;2023-04-15T03:53:09;98985.16;;;3.38;100.00
17260;BME280;8746;49.230;9.220;2023-04-15T03:55:34;98980.03;;;3.35;100.00
17260;BME280;8746;49.230;9.220;2023-04-15T03:58:00;98986.53;;;3.18;100.00
17260;BME280;8746;49.230;9.220;2023-04-15T04:00:25;98987.28;;;3.24;100.00
17260;BME280;8746;49.230;9.220;2023-04-15T04:02:51;98985.81;;;3.13;100.00
17260;BME280;8746;49.230;9.220;2023-04-15T04:05:16;98985.41;;;2.94;100.00
17260;BME280;8746;49.230;9.220;2023-04-15T04:07:41;98982.00;;;2.91;100.00
17260;BME280;8746;49.230;9.220;2023-04-15T04:10:07;98987.19;;;2.92;100.00
17260;BME280;8746;49.230;9.220;2023-04-15T04:12:32;98986.28;;;2.93;100.00
17260;BME280;8746;49.230;9.220;2023-04-15T04:14:58;98983.69;;;2.93;100.00
17260;BME280;8746;49.230;9.220;2023-04-15T04:17:23;98990.03;;;2.83;100.00
17260;BME280;8746;49.230;9.220;2023-04-15T04:19:48;98994.34;;;2.84;100.00
17260;BME280;8746;49.230;9.220;2023-04-15T04:22:14;98985.63;;;2.85;100.00
17260;BME280;8746;49.230;9.220;2023-04-15T04:24:39;98989.13;;;2.84;100.00
17260;BME280;8746;49.230;9.220;2023-04-15T04:27:05;98992.78;;;2.77;100.00
17260;BME280;8746;49.230;9.220;2023-04-15T04:29:30;98996.28;;;2.76;100.00
17260;BME280;8746;49.230;9.220;2023-04-15T04:31:55;98995.41;;;2.75;100.00
17260;BME280;8746;49.230;9.220;2023-04-15T04:34:21;99010.28;;;2.70;100.00
17260;BME280;8746;49.230;9.220;2023-04-15T04:36:46;99007.69;;;2.70;100.00
17260;BME280;8746;49.230;9.220;2023-04-15T04:39:11;99013.75;;;2.70;100.00
17260;BME280;8746;49.230;9.220;2023-04-15T04:41:36;99017.25;;;2.69;100.00
17260;BME280;8746;49.230;9.220;2023-04-15T04:44:02;99023.44;;;2.64;100.00
17260;BME280;8746;49.230;9.220;2023-04-15T04:46:27;99017.50;;;2.59;100.00
17260;BME280;8746;49.230;9.220;2023-04-15T04:48:53;99015.63;;;2.64;100.00
17260;BME280;8746;49.230;9.220;2023-04-15T04:51:18;99017.44;;;2.60;100.00
17260;BME280;8746;49.230;9.220;2023-04-15T04:53:44;99024.38;;;2.61;100.00
17260;BME280;8746;49.230;9.220;2023-04-15T04:56:09;99019.16;;;2.61;100.00
17260;BME280;8746;49.230;9.220;2023-04-15T04:58:34;99021.69;;;2.66;100.00
17260;BME280;8746;49.230;9.220;2023-04-15T05:01:00;99024.19;;;2.70;100.00
17260;BME280;8746;49.230;9.220;2023-04-15T05:03:25;99030.19;;;2.74;100.00
17260;BME280;8746;49.230;9.220;2023-04-15T05:05:51;99022.38;;;2.72;100.00
17260;BME280;8746;49.230;9.220;2023-04-15T05:08:16;99024.78;;;2.82;100.00
17260;BME280;8746;49.230;9.220;2023-04-15T05:10:42;99020.31;;;2.87;100.00
17260;BME280;8746;49.230;9.220;2023-04-15T05:13:07;99025.19;;;3.01;100.00
17260;BME280;8746;49.230;9.220;2023-04-15T05:15:33;99018.75;;;2.80;100.00
17260;BME280;8746;49.230;9.220;2023-04-15T05:18:01;99028.38;;;2.76;100.00
17260;BME280;8746;49.230;9.220;2023-04-15T05:20:26;99027.53;;;2.76;100.00
17260;BME280;8746;49.230;9.220;2023-04-15T05:22:51;99030.03;;;2.80;100.00
17260;BME280;8746;49.230;9.220;2023-04-15T05:25:17;99031.72;;;2.81;100.00
17260;BME280;8746;49.230;9.220;2023-04-15T05:27:42;99023.00;;;2.82;100.00
17260;BME280;8746;49.230;9.220;2023-04-15T05:30:08;99025.66;;;2.81;100.00
17260;BME280;8746;49.230;9.220;2023-04-15T05:32:34;99029.16;;;2.80;100.00
17260;BME280;8746;49.230;9.220;2023-04-15T05:34:59;99025.66;;;2.81;100.00
17260;BME280;8746;49.230;9.220;2023-04-15T05:37:25;99039.63;;;2.78;100.00
17260;BME280;8746;49.230;9.220;2023-04-15T05:39:50;99030.94;;;2.78;100.00
17260;BME280;8746;49.230;9.220;2023-04-15T05:42:16;99027.53;;;2.76;100.00
17260;BME280;8746;49.230;9.220;2023-04-15T05:44:41;99031.13;;;2.70;100.00
17260;BME280;8746;49.230;9.220;2023-04-15T05:47:07;99036.50;;;2.62;100.00
17260;BME280;8746;49.230;9.220;2023-04-15T05:49:32;99041.56;;;2.68;100.00
17260;BME280;8746;49.230;9.220;2023-04-15T05:51:58;99042.38;;;2.72;100.00
17260;BME280;8746;49.230;9.220;2023-04-15T05:54:23;99043.16;;;2.76;100.00
17260;BME280;8746;49.230;9.220;2023-04-15T05:56:49;99044.78;;;2.80;100.00
17260;BME280;8746;49.230;9.220;2023-04-15T05:59:14;99043.56;;;2.95;100.00
17260;BME280;8746;49.230;9.220;2023-04-15T06:01:39;99046.22;;;2.93;100.00
17260;BME280;8746;49.230;9.220;2023-04-15T06:04:05;99044.50;;;2.92;100.00
17260;BME280;8746;49.230;9.220;2023-04-15T06:06:30;99047.03;;;2.95;100.00
17260;BME280;8746;49.230;9.220;2023-04-15T06:08:56;99050.19;;;3.08;100.00
17260;BME280;8746;49.230;9.220;2023-04-15T06:11:22;99044.69;;;3.20;100.00
17260;BME280;8746;49.230;9.220;2023-04-15T06:13:47;99045.56;;;3.21;100.00
17260;BME280;8746;49.230;9.220;2023-04-15T06:16:13;99049.72;;;3.28;100.00
17260;BME280;8746;49.230;9.220;2023-04-15T06:18:38;99051.94;;;3.44;100.00
17260;BME280;8746;49.230;9.220;2023-04-15T06:21:04;99041.22;;;3.56;100.00
17260;BME280;8746;49.230;9.220;2023-04-15T06:23:29;99054.97;;;3.61;100.00
17260;BME280;8746;49.230;9.220;2023-04-15T06:25:55;99046.09;;;3.68;100.00
17260;BME280;8746;49.230;9.220;2023-04-15T06:28:20;99043.88;;;3.86;100.00
17260;BME280;8746;49.230;9.220;2023-04-15T06:30:45;99046.31;;;3.92;100.00
17260;BME280;8746;49.230;9.220;2023-04-15T06:33:11;99046.81;;;4.07;100.00
17260;BME280;8746;49.230;9.220;2023-04-15T06:35:36;99047.38;;;3.85;100.00
17260;BME280;8746;49.230;9.220;2023-04-15T06:38:01;99045.34;;;3.96;100.00
17260;BME280;8746;49.230;9.220;2023-04-15T06:40:27;99052.78;;;4.10;100.00
17260;BME280;8746;49.230;9.220;2023-04-15T06:42:52;99048.25;;;4.17;100.00
17260;BME280;8746;49.230;9.220;2023-04-15T06:45:18;99057.78;;;4.18;100.00
17260;BME280;8746;49.230;9.220;2023-04-15T06:47:43;99058.66;;;4.19;100.00
17260;BME280;8746;49.230;9.220;2023-04-15T06:50:09;99051.00;;;4.12;100.00
17260;BME280;8746;49.230;9.220;2023-04-15T06:52:35;99055.94;;;4.22;100.00
17260;BME280;8746;49.230;9.220;2023-04-15T06:55:01;99055.69;;;4.31;100.00
17260;BME280;8746;49.230;9.220;2023-04-15T06:57:26;99052.63;;;4.46;100.00
17260;BME280;8746;49.230;9.220;2023-04-15T06:59:53;99049.59;;;4.60;100.00
17260;BME280;8746;49.230;9.220;2023-04-15T07:02:18;99056.69;;;4.85;100.00
17260;BME280;8746;49.230;9.220;2023-04-15T07:04:44;99054.00;;;4.88;100.00
17260;BME280;8746;49.230;9.220;2023-04-15T07:07:09;99061.91;;;4.85;100.00
17260;BME280;8746;49.230;9.220;2023-04-15T07:09:35;99053.88;;;4.91;100.00
17260;BME280;8746;49.230;9.220;2023-04-15T07:12:00;99043.94;;;5.03;100.00
17260;BME280;8746;49.230;9.220;2023-04-15T07:14:25;99049.56;;;5.17;100.00
17260;BME280;8746;49.230;9.220;2023-04-15T07:16:51;99041.03;;;5.39;100.00
17260;BME280;8746;49.230;9.220;2023-04-15T07:19:17;99031.69;;;5.32;98.81
17260;BME280;8746;49.230;9.220;2023-04-15T07:21:42;99037.50;;;5.40;98.84
17260;BME280;8746;49.230;9.220;2023-04-15T07:24:07;99027.16;;;5.62;99.29
17260;BME280;8746;49.230;9.220;2023-04-15T07:26:34;99039.59;;;5.81;99.85
17260;BME280;8746;49.230;9.220;2023-04-15T07:29:00;99037.34;;;5.95;99.59
17260;BME280;8746;49.230;9.220;2023-04-15T07:31:25;99039.03;;;6.21;98.57
17260;BME280;8746;49.230;9.220;2023-04-15T07:33:51;99034.84;;;6.17;96.31
17260;BME280;8746;49.230;9.220;2023-04-15T07:36:17;99045.00;;;6.27;96.94
17260;BME280;8746;49.230;9.220;2023-04-15T07:38:43;99039.56;;;6.31;95.12
17260;BME280;8746;49.230;9.220;2023-04-15T07:41:08;99038.50;;;6.59;95.58
17260;BME280;8746;49.230;9.220;2023-04-15T07:43:34;99035.03;;;6.36;94.48
17260;BME280;8746;49.230;9.220;2023-04-15T07:46:00;99040.28;;;6.58;94.02
17260;BME280;8746;49.230;9.220;2023-04-15T07:48:25;99040.41;;;6.78;94.75
17260;BME280;8746;49.230;9.220;2023-04-15T07:50:51;99042.13;;;6.79;93.65
17260;BME280;8746;49.230;9.220;2023-04-15T07:53:16;99040.16;;;6.84;93.35
17260;BME280;8746;49.230;9.220;2023-04-15T07:55:42;99041.22;;;7.02;93.58
17260;BME280;8746;49.230;9.220;2023-04-15T07:58:07;99038.78;;;7.19;93.00
17260;BME280;8746;49.230;9.220;2023-04-15T08:00:32;99039.88;;;7.57;91.83
17260;BME280;8746;49.230;9.220;2023-04-15T08:02:58;99033.97;;;7.72;91.24
17260;BME280;8746;49.230;9.220;2023-04-15T08:05:24;99034.72;;;7.74;90.52
17260;BME280;8746;49.230;9.220;2023-04-15T08:07:50;99029.47;;;7.74;89.44
17260;BME280;8746;49.230;9.220;2023-04-15T08:10:15;99030.47;;;7.72;88.92
17260;BME280;8746;49.230;9.220;2023-04-15T08:12:41;99027.47;;;7.81;90.12
17260;BME280;8746;49.230;9.220;2023-04-15T08:15:07;99034.72;;;7.95;87.53
17260;BME280;8746;49.230;9.220;2023-04-15T08:17:33;99027.72;;;7.75;89.10
17260;BME280;8746;49.230;9.220;2023-04-15T08:19:58;99030.09;;;7.81;88.43
17260;BME280;8746;49.230;9.220;2023-04-15T08:22:24;99024.81;;;8.01;86.89
17260;BME280;8746;49.230;9.220;2023-04-15T08:24:49;99024.59;;;8.06;86.85
17260;BME280;8746;49.230;9.220;2023-04-15T08:27:15;99022.97;;;8.23;87.46
17260;BME280;8746;49.230;9.220;2023-04-15T08:29:41;99024.25;;;8.33;86.05
17260;BME280;8746;49.230;9.220;2023-04-15T08:32:06;99025.66;;;8.61;85.55
17260;BME280;8746;49.230;9.220;2023-04-15T08:34:31;99030.91;;;8.61;85.45
17260;BME280;8746;49.230;9.220;2023-04-15T08:36:57;99025.06;;;8.92;85.01
17260;BME280;8746;49.230;9.220;2023-04-15T08:39:22;99027.25;;;8.82;82.65
17260;BME280;8746;49.230;9.220;2023-04-15T08:41:59;99025.63;;;8.80;83.82
17260;BME280;8746;49.230;9.220;2023-04-15T08:44:28;99027.81;;;8.89;83.44
17260;BME280;8746;49.230;9.220;2023-04-15T08:46:55;99031.53;;;8.85;83.50
17260;BME280;8746;49.230;9.220;2023-04-15T08:49:24;99034.88;;;8.89;82.99
17260;BME280;8746;49.230;9.220;2023-04-15T08:51:51;99024.53;;;9.21;83.50
17260;BME280;8746;49.230;9.220;2023-04-15T08:54:17;99026.25;;;9.39;82.38
17260;BME280;8746;49.230;9.220;2023-04-15T08:56:43;99025.97;;;9.97;81.71
17260;BME280;8746;49.230;9.220;2023-04-15T08:59:09;99021.94;;;10.07;79.40
17260;BME280;8746;49.230;9.220;2023-04-15T09:01:36;99023.22;;;9.82;77.00
17260;BME280;8746;49.230;9.220;2023-04-15T09:04:02;99026.94;;;9.78;79.47
17260;BME280;8746;49.230;9.220;2023-04-15T09:06:30;99027.09;;;9.75;79.63
17260;BME280;8746;49.230;9.220;2023-04-15T09:08:56;99023.75;;;9.89;79.64
17260;BME280;8746;49.230;9.220;2023-04-15T09:11:21;99026.25;;;9.74;78.67
17260;BME280;8746;49.230;9.220;2023-04-15T09:13:48;99025.94;;;9.81;76.29
17260;BME280;8746;49.230;9.220;2023-04-15T09:16:13;99035.69;;;9.96;78.26
17260;BME280;8746;49.230;9.220;2023-04-15T09:18:39;99036.94;;;10.22;77.91
17260;BME280;8746;49.230;9.220;2023-04-15T09:21:13;99031.56;;;10.73;77.28
17260;BME280;8746;49.230;9.220;2023-04-15T09:23:54;99035.66;;;10.79;77.26
17260;BME280;8746;49.230;9.220;2023-04-15T09:26:30;99035.31;;;11.01;75.32
17260;BME280;8746;49.230;9.220;2023-04-15T09:29:09;99039.19;;;11.26;75.62
17260;BME280;8746;49.230;9.220;2023-04-15T09:31:38;99041.00;;;11.56;72.18
17260;BME280;8746;49.230;9.220;2023-04-15T09:34:04;99045.03;;;11.31;71.83
17260;BME280;8746;49.230;9.220;2023-04-15T09:36:39;99036.69;;;11.84;72.35
17260;BME280;8746;49.230;9.220;2023-04-15T09:39:15;99031.97;;;11.75;69.74
17260;BME280;8746;49.230;9.220;2023-04-15T09:41:41;99044.06;;;11.93;70.92
17260;BME280;8746;49.230;9.220;2023-04-15T09:44:21;99039.94;;;12.03;66.58
17260;BME280;8746;49.230;9.220;2023-04-15T09:46:47;99039.31;;;12.29;67.67
17260;BME280;8746;49.230;9.220;2023-04-15T09:49:12;99040.06;;;12.31;69.06
17260;BME280;8746;49.230;9.220;2023-04-15T09:51:38;99044.88;;;12.39;69.28
17260;BME280;8746;49.230;9.220;2023-04-15T09:54:04;99041.94;;;12.43;65.20
17260;BME280;8746;49.230;9.220;2023-04-15T09:56:37;99040.38;;;12.68;66.16
17260;BME280;8746;49.230;9.220;2023-04-15T09:59:09;99043.00;;;13.10;65.00
17260;BME280;8746;49.230;9.220;2023-04-15T10:01:35;99035.16;;;13.36;64.84
17260;BME280;8746;49.230;9.220;2023-04-15T10:04:02;99037.81;;;13.36;64.39
17260;BME280;8746;49.230;9.220;2023-04-15T10:06:29;99040.44;;;13.23;63.63
17260;BME280;8746;49.230;9.220;2023-04-15T10:08:56;99035.53;;;13.17;64.04
17260;BME280;8746;49.230;9.220;2023-04-15T10:11:23;99049.72;;;12.88;63.52
17260;BME280;8746;49.230;9.220;2023-04-15T10:13:49;99041.91;;;13.27;63.84
17260;BME280;8746;49.230;9.220;2023-04-15T10:16:18;99040.66;;;13.33;61.81
17260;BME280;8746;49.230;9.220;2023-04-15T10:18:45;99050.19;;;13.62;60.50
17260;BME280;8746;49.230;9.220;2023-04-15T10:21:12;99044.69;;;13.66;60.11
17260;BME280;8746;49.230;9.220;2023-04-15T10:23:39;99043.28;;;13.47;62.30
17260;BME280;8746;49.230;9.220;2023-04-15T10:26:05;99047.25;;;13.12;62.06
17260;BME280;8746;49.230;9.220;2023-04-15T10:28:31;99040.00;;;13.43;61.23
17260;BME280;8746;49.230;9.220;2023-04-15T10:30:57;99040.34;;;13.65;61.48
17260;BME280;8746;49.230;9.220;2023-04-15T10:33:24;99044.88;;;13.62;59.89
17260;BME280;8746;49.230;9.220;2023-04-15T10:35:50;99046.88;;;13.46;59.58
17260;BME280;8746;49.230;9.220;2023-04-15T10:38:43;99044.03;;;13.35;62.84
17260;BME280;8746;49.230;9.220;2023-04-15T10:41:19;99050.91;;;13.24;62.74
17260;BME280;8746;49.230;9.220;2023-04-15T10:44:02;99051.31;;;12.91;63.41
17260;BME280;8746;49.230;9.220;2023-04-15T10:46:42;99059.13;;;12.65;63.24
17260;BME280;8746;49.230;9.220;2023-04-15T10:51:37;99069.78;;;12.63;60.20
17260;BME280;8746;49.230;9.220;2023-04-15T10:54:08;99062.22;;;12.57;54.17
17260;BME280;8746;49.230;9.220;2023-04-15T10:56:37;99069.06;;;12.61;50.03
17260;BME280;8746;49.230;9.220;2023-04-15T10:59:04;99062.16;;;12.44;49.87
17260;BME280;8746;49.230;9.220;2023-04-15T11:02:21;99067.34;;;12.46;52.83
17260;BME280;8746;49.230;9.220;2023-04-15T11:09:57;99078.41;;;12.24;49.54
17260;BME280;8746;49.230;9.220;2023-04-15T11:12:35;99075.94;;;12.21;50.05
17260;BME280;8746;49.230;9.220;2023-04-15T11:15:30;99084.81;;;12.34;51.78
17260;BME280;8746;49.230;9.220;2023-04-15T11:18:18;99084.34;;;12.56;51.82
17260;BME280;8746;49.230;9.220;2023-04-15T11:20:47;99084.03;;;12.75;48.77
17260;BME280;8746;49.230;9.220;2023-04-15T11:23:16;99080.09;;;12.68;49.09
17260;BME280;8746;49.230;9.220;2023-04-15T11:25:42;99093.59;;;12.78;48.75
17260;BME280;8746;49.230;9.220;2023-04-15T11:28:07;99082.22;;;12.90;47.95
17260;BME280;8746;49.230;9.220;2023-04-15T11:30:34;99085.22;;;12.98;47.86
17260;BME280;8746;49.230;9.220;2023-04-15T11:33:02;99087.91;;;13.11;46.04
17260;BME280;8746;49.230;9.220;2023-04-15T11:35:29;99093.16;;;13.13;47.62
17260;BME280;8746;49.230;9.220;2023-04-15T11:37:54;99098.66;;;12.95;48.45
17260;BME280;8746;49.230;9.220;2023-04-15T11:40:25;99103.91;;;13.10;48.97
17260;BME280;8746;49.230;9.220;2023-04-15T11:43:09;99101.63;;;12.91;46.45
17260;BME280;8746;49.230;9.220;2023-04-15T11:45:37;99100.56;;;12.93;47.05
17260;BME280;8746;49.230;9.220;2023-04-15T11:48:07;99112.75;;;13.38;47.40
17260;BME280;8746;49.230;9.220;2023-04-15T11:50:33;99105.94;;;13.34;46.25
17260;BME280;8746;49.230;9.220;2023-04-15T11:53:00;99119.78;;;13.24;46.39
17260;BME280;8746;49.230;9.220;2023-04-15T11:55:27;99124.78;;;12.87;47.71
17260;BME280;8746;49.230;9.220;2023-04-15T11:58:10;99116.47;;;12.50;47.61
17260;BME280;8746;49.230;9.220;2023-04-15T12:00:36;99121.84;;;12.48;47.70
17260;BME280;8746;49.230;9.220;2023-04-15T12:03:41;99122.69;;;12.49;47.36
17260;BME280;8746;49.230;9.220;2023-04-15T12:06:18;99119.03;;;12.52;46.96
17260;BME280;8746;49.230;9.220;2023-04-15T12:14:09;99135.56;;;12.41;48.41
17260;BME280;8746;49.230;9.220;2023-04-15T12:16:40;99141.56;;;12.14;45.57
17260;BME280;8746;49.230;9.220;2023-04-15T12:19:12;99136.19;;;12.15;42.57
17260;BME280;8746;49.230;9.220;2023-04-15T12:21:40;99139.59;;;12.17;45.10
17260;BME280;8746;49.230;9.220;2023-04-15T12:24:07;99136.44;;;12.11;44.41
17260;BME280;8746;49.230;9.220;2023-04-15T12:26:40;99142.69;;;12.10;43.21
17260;BME280;8746;49.230;9.220;2023-04-15T12:29:07;99144.06;;;12.01;43.39
17260;BME280;8746;49.230;9.220;2023-04-15T12:31:33;99149.97;;;11.90;43.90
17260;BME280;8746;49.230;9.220;2023-04-15T12:34:00;99156.94;;;11.91;45.32
17260;BME280;8746;49.230;9.220;2023-04-15T12:36:26;99165.84;;;11.74;49.03
17260;BME280;8746;49.230;9.220;2023-04-15T12:38:52;99161.69;;;11.70;49.57
17260;BME280;8746;49.230;9.220;2023-04-15T12:41:19;99167.59;;;11.59;49.98
17260;BME280;8746;49.230;9.220;2023-04-15T12:43:45;99169.97;;;11.64;51.48
17260;BME280;8746;49.230;9.220;2023-04-15T12:46:11;99179.00;;;11.60;51.78
17260;BME280;8746;49.230;9.220;2023-04-15T12:48:37;99181.41;;;11.32;52.76
17260;BME280;8746;49.230;9.220;2023-04-15T12:51:02;99184.63;;;11.37;53.83
17260;BME280;8746;49.230;9.220;2023-04-15T12:53:28;99190.53;;;11.43;53.95
17260;BME280;8746;49.230;9.220;2023-04-15T12:55:53;99199.31;;;11.43;53.54
17260;BME280;8746;49.230;9.220;2023-04-15T12:58:19;99204.25;;;11.49;53.93
17260;BME280;8746;49.230;9.220;2023-04-15T13:00:45;99199.91;;;11.32;53.86
17260;BME280;8746;49.230;9.220;2023-04-15T13:03:11;99200.81;;;11.15;53.80
17260;BME280;8746;49.230;9.220;2023-04-15T13:05:37;99200.81;;;11.31;55.02
17260;BME280;8746;49.230;9.220;2023-04-15T13:08:04;99209.34;;;11.20;55.18
17260;BME280;8746;49.230;9.220;2023-04-15T13:10:30;99207.56;;;11.21;55.21
17260;BME280;8746;49.230;9.220;2023-04-15T13:12:56;99211.31;;;11.33;55.97
17260;BME280;8746;49.230;9.220;2023-04-15T13:15:21;99212.66;;;11.40;56.06
17260;BME280;8746;49.230;9.220;2023-04-15T13:17:48;99211.66;;;11.43;55.44
17260;BME280;8746;49.230;9.220;2023-04-15T13:20:13;99212.31;;;11.46;56.04
17260;BME280;8746;49.230;9.220;2023-04-15T13:22:39;99218.47;;;11.47;55.20
17260;BME280;8746;49.230;9.220;2023-04-15T13:25:06;99220.09;;;11.49;53.86